world map with FTU marked

FTU - Airport

This information may not be accurate or current and is not valid for navigation or flight planning. No warranty of fitness for any purpose is made or implied.

flag of Madagascar

Donate via PayPal

Additional information is available on the NEW Great Circle Mapper

Location
City:  Tolagnaro, Madagascar
Name:Maurillac Airport (Fort Dauphin Airport)
ICAO / IATA:FMSD / FTU

Details
Type:Airport (Aerodrome, Airfield)
Use:Public/Civil
Latitude:25°02'17"S (-25.038055)
Longitude:46°57'22"E (46.956111)
Elevation:26 ft (8 m)
Runways:2
Longest:5906 × 98 ft (1800 × 30 m)

Time
Timezone:UTC+3 (DST+5)
Local Time:

Weather
METAR:FMSD  240300Z 06018KT CAVOK 22/16 Q1015
TAF:FMSD  232300Z 2400/2424 04018KT CAVOK PROB40 TEMPO 2411/2418 06025G35KT

Related Locations
Nearby:
Farthest:KNSI: 11445 mi / 18419 km
San Nicolas Island [San Nicolas Island NOLF Airport], CA, US

Find:

   beyond  
but within

Other Information
Maps:
Sources:

  


 


Great Circle Mapper   Great Circle Mapper
Great Circle Mapper FAQ   Great Circle Mapper FAQ
  Karl's Home Page
KLSē   KLSē Home
   GC on Facebook
Airlines of the World   Airlines of the World
Donate via PayPal


Copyright © 2004-2018, Karl L. Swartz. All rights reserved.
All trademarks mentioned herein belong to their respective owners.

Please see credits for attribution and copyright information.

Karl Swartz <karl@kls2.com>
  Powered by FreeBSD
Valid HTML 4.01!
Labeled with ICRA
hCard Microformat
Geo Microformat